Time;durP1;ratioP1;P1;durP2;ratioP2;P2;SDS_P1;SDS_P2;PMS_P1;PMS_P2;Temp;Humidity;BMP_temperature;BMP_pressure;BME280_temperature;BME280_humidity;BME280_pressure;Samples;Min_cycle;Max_cycle;Signal;HPM_P1;HPM_P2
2023/04/19 00:01:23;;;;;;;13.15;10.02;;;;;;;9.03;76.78;102629.63;4899956;29;20234;-72
2023/04/19 00:03:49;;;;;;;13.15;10.40;;;;;;;9.07;76.97;102627.91;4894430;29;20033;-72
2023/04/19 00:06:15;;;;;;;12.95;9.98;;;;;;;9.10;76.84;102622.66;4885804;29;20493;-72
2023/04/19 00:08:41;;;;;;;14.65;9.80;;;;;;;9.13;76.85;102620.06;4906240;29;20032;-72
2023/04/19 00:11:07;;;;;;;15.48;10.43;;;;;;;9.12;76.70;102611.22;4897312;29;20418;-72
2023/04/19 00:13:33;;;;;;;13.20;10.05;;;;;;;9.16;76.94;102617.44;4890924;29;20040;-72
2023/04/19 00:15:59;;;;;;;16.50;10.27;;;;;;;9.19;76.45;102614.84;4899334;29;20040;-72
2023/04/19 00:18:24;;;;;;;12.50;9.45;;;;;;;9.22;76.19;102622.78;4889926;29;20035;-72
2023/04/19 00:20:50;;;;;;;15.25;10.32;;;;;;;9.25;76.72;102617.56;4903155;29;20036;-72
2023/04/19 00:23:15;;;;;;;14.15;10.57;;;;;;;9.26;76.51;102617.56;4896063;29;20048;-72
2023/04/19 00:25:41;;;;;;;12.73;9.50;;;;;;;9.28;76.70;102612.31;4902451;29;20072;-72
2023/04/19 00:28:06;;;;;;;13.52;10.02;;;;;;;9.36;76.80;102615.03;4897082;29;20103;-72
2023/04/19 00:30:32;;;;;;;13.10;10.18;;;;;;;9.35;76.58;102616.81;4909263;29;20041;-72
2023/04/19 00:32:57;;;;;;;13.82;10.70;;;;;;;9.34;76.83;102612.38;4893859;29;20365;-72
2023/04/19 00:35:23;;;;;;;15.30;10.02;;;;;;;9.37;76.62;102616.81;4893437;29;20180;-72
2023/04/19 00:37:49;;;;;;;12.60;9.73;;;;;;;9.40;77.43;102611.56;4896831;29;20488;-72
2023/04/19 00:40:14;;;;;;;20.38;11.07;;;;;;;9.41;77.26;102608.03;4900974;29;20049;-72
2023/04/19 00:42:40;;;;;;;14.07;10.30;;;;;;;9.43;76.82;102596.63;4907060;28;20033;-72
2023/04/19 00:45:06;;;;;;;14.75;9.95;;;;;;;9.44;76.60;102598.38;4899444;29;20502;-72
2023/04/19 00:47:31;;;;;;;14.45;10.75;;;;;;;9.45;77.03;102601.94;4898286;29;20040;-72
2023/04/19 00:49:57;;;;;;;13.18;10.40;;;;;;;9.46;76.81;102606.34;4910151;29;20040;-72
2023/04/19 00:52:23;;;;;;;17.90;10.80;;;;;;;9.47;76.78;102600.19;4889900;29;20105;-72
2023/04/19 00:54:48;;;;;;;15.52;10.95;;;;;;;9.50;77.51;102615.22;4916600;29;20045;-72
2023/04/19 00:57:15;;;;;;;15.18;11.15;;;;;;;9.49;77.79;102606.38;4897137;29;20032;-72
2023/04/19 00:59:41;;;;;;;22.95;11.50;;;;;;;9.50;77.43;102609.91;4918928;29;20044;-72
2023/04/19 01:02:08;;;;;;;13.60;10.18;;;;;;;9.50;77.35;102602.00;4899352;29;20037;-74
2023/04/19 01:04:34;;;;;;;15.32;10.15;;;;;;;9.52;77.64;102602.88;4903619;29;20235;-74
2023/04/19 01:07:00;;;;;;;15.13;10.75;;;;;;;9.48;77.73;102605.47;4896580;29;20203;-74
2023/04/19 01:09:26;;;;;;;12.32;9.60;;;;;;;9.50;77.16;102605.50;4911385;29;20439;-74
2023/04/19 01:11:52;;;;;;;20.48;10.65;;;;;;;9.51;77.47;102604.63;4896549;29;20115;-74
2023/04/19 01:14:17;;;;;;;14.93;10.70;;;;;;;9.52;77.89;102600.22;4903545;29;20044;-74
2023/04/19 01:16:46;;;;;;;19.17;10.70;;;;;;;9.52;77.51;102597.56;4875116;29;20064;-74
2023/04/19 01:19:12;;;;;;;14.27;10.10;;;;;;;9.51;78.05;102599.34;4890296;29;20456;-74
2023/04/19 01:21:39;;;;;;;17.92;10.55;;;;;;;9.54;78.22;102595.84;4906425;29;20044;-74
2023/04/19 01:24:05;;;;;;;16.65;10.63;;;;;;;9.55;78.57;102592.34;4890669;29;20029;-74
2023/04/19 01:26:30;;;;;;;14.25;10.05;;;;;;;9.55;77.68;102590.59;4900851;29;20039;-74
2023/04/19 01:28:56;;;;;;;13.18;10.20;;;;;;;9.51;78.78;102583.47;4911192;29;20032;-74
2023/04/19 01:31:21;;;;;;;18.83;10.85;;;;;;;9.56;78.78;102596.75;4906349;29;20099;-74
2023/04/19 01:33:47;;;;;;;15.27;10.32;;;;;;;9.57;77.81;102599.41;4905898;29;20032;-74
2023/04/19 01:36:12;;;;;;;16.60;11.07;;;;;;;9.58;78.72;102603.81;4899999;29;20513;-73
2023/04/19 01:38:39;;;;;;;15.95;10.63;;;;;;;9.59;79.17;102600.28;4894073;29;20036;-73
2023/04/19 01:41:08;;;;;;;15.05;10.50;;;;;;;9.60;78.76;102595.91;4864022;29;20025;-73
2023/04/19 01:43:33;;;;;;;13.27;10.75;;;;;;;9.63;79.10;102593.31;4894057;29;20040;-73
2023/04/19 01:45:59;;;;;;;15.18;10.18;;;;;;;9.65;79.00;102588.91;4897105;29;20133;-73
2023/04/19 01:48:24;;;;;;;17.60;10.45;;;;;;;9.64;80.16;102582.75;4883667;29;20135;-73
2023/04/19 01:50:50;;;;;;;16.50;10.52;;;;;;;9.65;79.71;102584.50;4888754;29;20044;-73
2023/04/19 01:53:15;;;;;;;16.25;11.32;;;;;;;9.66;79.69;102586.25;4895129;29;20460;-73
2023/04/19 01:55:41;;;;;;;17.63;11.52;;;;;;;9.66;80.41;102586.25;4886339;29;20659;-73
2023/04/19 01:58:07;;;;;;;14.65;10.65;;;;;;;9.69;80.34;102585.41;4910568;29;20040;-73
2023/04/19 02:00:32;;;;;;;16.13;10.35;;;;;;;9.71;80.27;102588.97;4889522;29;20055;-73
2023/04/19 02:03:03;;;;;;;17.73;11.15;;;;;;;9.74;80.63;102580.16;4886678;29;20036;-73
2023/04/19 02:05:28;;;;;;;13.93;10.57;;;;;;;9.76;80.31;102581.94;4888739;29;20033;-73
2023/04/19 02:07:54;;;;;;;17.85;11.25;;;;;;;9.78;80.60;102571.41;4869206;29;20028;-73
2023/04/19 02:10:19;;;;;;;17.48;11.93;;;;;;;9.80;80.36;102574.94;4882077;29;20040;-73
2023/04/19 02:12:45;;;;;;;15.80;10.57;;;;;;;9.81;80.08;102571.41;4893003;29;20047;-73
2023/04/19 02:15:11;;;;;;;18.52;10.60;;;;;;;9.81;80.68;102571.41;4900137;29;20067;-73
2023/04/19 02:17:37;;;;;;;17.45;11.05;;;;;;;9.81;80.66;102576.72;4907672;28;20123;-73
2023/04/19 02:20:04;;;;;;;15.73;10.85;;;;;;;9.81;80.60;102574.06;4889292;29;20500;-73
2023/04/19 02:22:29;;;;;;;16.75;10.95;;;;;;;9.79;80.60;102568.78;4897805;29;20400;-73
2023/04/19 02:24:54;;;;;;;16.30;10.90;;;;;;;9.78;80.87;102566.97;4884430;29;20036;-73
2023/04/19 02:27:28;;;;;;;15.35;9.95;;;;;;;9.77;80.36;102565.22;4884600;29;20184;-73
2023/04/19 02:29:54;;;;;;;15.05;10.93;;;;;;;9.79;80.76;102567.88;4891767;29;20238;-73
2023/04/19 02:32:19;;;;;;;15.88;11.32;;;;;;;9.77;80.67;102570.50;4882596;29;20025;-71
2023/04/19 02:34:45;;;;;;;14.45;10.65;;;;;;;9.74;80.20;102566.94;4848732;29;1152487;-71
2023/04/19 02:37:10;;;;;;;17.17;10.55;;;;;;;9.73;81.14;102575.75;4899120;29;20059;-71
2023/04/19 02:39:35;;;;;;;15.88;10.45;;;;;;;9.70;80.97;102573.97;4902720;29;20045;-71
2023/04/19 02:42:01;;;;;;;16.02;10.07;;;;;;;9.67;81.08;102568.66;4879155;29;20417;-71
2023/04/19 02:44:26;;;;;;;15.05;10.73;;;;;;;9.64;80.87;102577.47;4899713;29;20036;-71
2023/04/19 02:46:52;;;;;;;18.50;10.95;;;;;;;9.63;80.90;102583.59;4884461;29;20044;-71
2023/04/19 02:49:20;;;;;;;15.48;10.45;;;;;;;9.62;81.21;102578.31;4904485;29;20091;-71
2023/04/19 02:51:45;;;;;;;16.02;10.00;;;;;;;9.59;81.35;102578.25;4872988;29;20507;-73
2023/04/19 02:54:13;;;;;;;20.33;9.75;;;;;;;9.59;80.94;102583.56;4878916;29;20496;-73
2023/04/19 02:56:40;;;;;;;17.65;11.15;;;;;;;9.56;81.64;102578.22;4892158;29;20223;-73
2023/04/19 02:59:05;;;;;;;14.60;10.45;;;;;;;9.56;81.53;102581.75;4899030;29;20213;-73
2023/04/19 03:01:32;;;;;;;16.48;9.85;;;;;;;9.54;81.43;102579.97;4892379;29;20494;-73
2023/04/19 03:03:59;;;;;;;13.93;9.90;;;;;;;9.52;81.44;102582.63;4887725;29;20043;-73
2023/04/19 03:06:25;;;;;;;14.10;9.93;;;;;;;9.53;81.24;102581.72;4899020;29;20036;-73
2023/04/19 03:08:50;;;;;;;19.52;10.40;;;;;;;9.51;80.98;102583.47;4884474;29;20041;-75
2023/04/19 03:11:17;;;;;;;15.20;10.18;;;;;;;9.50;80.88;102581.72;4886319;29;20475;-75
2023/04/19 03:13:43;;;;;;;12.60;9.65;;;;;;;9.49;81.09;102579.91;4887726;29;20040;-74
2023/04/19 03:16:11;;;;;;;16.77;10.10;;;;;;;9.50;81.28;102583.47;4886315;29;20028;-74
2023/04/19 03:18:36;;;;;;;17.98;9.95;;;;;;;9.48;81.67;102576.41;4876172;29;20131;-74
2023/04/19 03:21:03;;;;;;;14.55;9.63;;;;;;;9.48;81.59;102579.03;4895567;29;20479;-74
2023/04/19 03:23:36;;;;;;;13.27;9.30;;;;;;;9.45;81.25;102573.72;4874560;29;20044;-74
2023/04/19 03:26:03;;;;;;;14.48;9.25;;;;;;;9.44;80.95;102566.66;4888434;29;20116;-74
2023/04/19 03:28:37;;;;;;;13.23;9.85;;;;;;;9.44;81.47;102566.66;4880014;29;20036;-74
2023/04/19 03:31:25;;;;;;;12.73;9.30;;;;;;;9.45;82.06;102572.84;4864191;29;20419;-74
2023/04/19 03:33:52;;;;;;;13.65;8.88;;;;;;;9.44;81.33;102566.66;4892565;29;20091;-74
2023/04/19 03:36:20;;;;;;;14.85;9.95;;;;;;;9.45;81.28;102567.56;4890740;29;20052;-74
2023/04/19 03:38:46;;;;;;;13.75;9.07;;;;;;;9.47;82.07;102565.81;4885083;29;20408;-75
2023/04/19 03:41:26;;;;;;;15.63;9.82;;;;;;;9.47;81.83;102566.69;4908225;29;20096;-74
2023/04/19 03:44:02;;;;;;;14.80;9.43;;;;;;;9.46;81.89;102562.25;4904845;29;20112;-74
2023/04/19 03:46:30;;;;;;;13.35;9.27;;;;;;;9.45;81.62;102564.91;4896953;29;20476;-75
2023/04/19 03:48:57;;;;;;;13.05;9.95;;;;;;;9.43;81.86;102562.25;4898919;29;20055;-75
2023/04/19 03:51:23;;;;;;;19.20;11.00;;;;;;;9.42;82.17;102568.41;4892523;29;20519;-75
2023/04/19 03:53:49;;;;;;;13.75;9.35;;;;;;;9.41;82.36;102573.66;4903701;29;20036;-75
2023/04/19 03:56:17;;;;;;;11.55;9.32;;;;;;;9.40;81.98;102571.91;4924344;28;20036;-74
2023/04/19 03:58:42;;;;;;;13.27;9.10;;;;;;;9.40;82.25;102571.91;4912582;29;20036;-74
2023/04/19 04:01:20;;;;;;;16.55;9.65;;;;;;;9.38;82.01;102571.00;4898432;29;20076;-74
2023/04/19 04:03:46;;;;;;;14.85;9.68;;;;;;;9.37;82.32;102567.47;4910348;29;20477;-74
2023/04/19 04:06:11;;;;;;;15.90;9.38;;;;;;;9.37;82.22;102561.28;4908173;29;20121;-74
2023/04/19 04:08:38;;;;;;;13.38;9.23;;;;;;;9.37;81.31;102566.56;4926775;29;20036;-74
2023/04/19 04:11:04;;;;;;;12.73;8.77;;;;;;;9.35;81.19;102574.50;4916620;28;20037;-75
2023/04/19 04:13:30;;;;;;;14.07;9.00;;;;;;;9.33;81.78;102570.06;4912685;28;20053;-75
2023/04/19 04:16:10;;;;;;;11.18;8.32;;;;;;;9.31;81.39;102567.41;4917421;29;20452;-71
2023/04/19 04:18:36;;;;;;;11.55;7.95;;;;;;;9.28;81.23;102567.38;4910362;29;20044;-71
2023/04/19 04:21:05;;;;;;;11.20;8.38;;;;;;;9.26;81.47;102563.81;4927526;29;20032;-71
2023/04/19 04:23:33;;;;;;;12.60;8.45;;;;;;;9.22;80.76;102573.50;4922706;29;20524;-70
2023/04/19 04:26:01;;;;;;;12.88;7.85;;;;;;;9.20;81.05;102574.34;4908463;29;20060;-71
2023/04/19 04:28:38;;;;;;;9.55;7.18;;;;;;;9.18;80.46;102576.94;4923336;29;20036;-71
2023/04/19 04:31:04;;;;;;;13.93;7.80;;;;;;;9.14;80.70;102577.78;4910038;29;20044;-71
2023/04/19 04:33:31;;;;;;;10.32;7.07;;;;;;;9.12;80.32;102568.94;4909878;29;20162;-71
2023/04/19 04:35:58;;;;;;;9.95;7.20;;;;;;;9.06;79.99;102574.16;4898453;29;20068;-71
2023/04/19 04:38:30;;;;;;;12.15;7.50;;;;;;;9.02;79.89;102581.16;4920171;29;20476;-71
2023/04/19 04:40:56;;;;;;;9.00;6.55;;;;;;;8.96;79.79;102578.44;4922071;29;20088;-70
2023/04/19 04:43:24;;;;;;;11.77;7.30;;;;;;;8.90;79.66;102588.94;4925641;29;20032;-70
2023/04/19 04:45:50;;;;;;;11.18;6.93;;;;;;;8.81;79.52;102587.06;4897337;29;20107;-70
2023/04/19 04:48:17;;;;;;;11.98;6.90;;;;;;;8.77;79.51;102584.34;4895498;29;20377;-71
2023/04/19 04:50:43;;;;;;;10.45;6.55;;;;;;;8.73;80.07;102593.09;4891542;29;20091;-71
2023/04/19 04:53:11;;;;;;;10.48;6.70;;;;;;;8.70;79.67;102595.69;4923677;29;20039;-70
2023/04/19 04:55:37;;;;;;;11.77;6.70;;;;;;;8.68;80.05;102590.41;4899477;29;20047;-70
2023/04/19 04:58:04;;;;;;;9.70;6.90;;;;;;;8.63;80.13;102594.75;4932442;29;20036;-70
2023/04/19 05:00:43;;;;;;;9.55;6.65;;;;;;;8.58;80.47;102593.75;4907177;29;20083;-70
2023/04/19 05:03:09;;;;;;;10.32;6.60;;;;;;;8.53;80.17;102591.09;4887912;29;20408;-70
2023/04/19 05:05:40;;;;;;;10.45;7.18;;;;;;;8.50;81.07;102590.13;4924374;29;20047;-70
2023/04/19 05:08:05;;;;;;;8.32;6.68;;;;;;;8.46;80.96;102589.22;4929003;28;20514;-70
2023/04/19 05:10:31;;;;;;;12.57;7.38;;;;;;;8.43;80.41;102589.13;4913534;28;20466;-70
2023/04/19 05:12:57;;;;;;;17.17;7.40;;;;;;;8.40;80.76;102595.25;4911110;29;20412;-70
2023/04/19 05:15:24;;;;;;;12.90;7.20;;;;;;;8.40;80.79;102594.38;4902547;29;20028;-70
2023/04/19 05:17:52;;;;;;;11.27;6.50;;;;;;;8.38;81.24;102591.72;4912124;29;20037;-70
2023/04/19 05:20:20;;;;;;;9.98;6.65;;;;;;;8.38;81.63;102593.44;4914866;29;20033;-71
2023/04/19 05:22:48;;;;;;;10.10;7.32;;;;;;;8.36;81.06;102590.78;4910450;29;20076;-70
2023/04/19 05:25:14;;;;;;;11.80;6.78;;;;;;;8.35;81.20;102596.91;4924169;28;20476;-71
2023/04/19 05:27:40;;;;;;;8.93;6.20;;;;;;;8.37;80.50;102596.94;4902055;29;20041;-70
2023/04/19 05:30:07;;;;;;;10.70;7.07;;;;;;;8.36;81.75;102600.47;4930408;29;20039;-70
2023/04/19 05:32:37;;;;;;;10.35;6.85;;;;;;;8.32;81.00;102604.78;4921933;29;20627;-70
2023/04/19 05:35:04;;;;;;;12.75;6.40;;;;;;;8.29;80.74;102599.47;4920077;29;20538;-70
2023/04/19 05:37:30;;;;;;;9.52;6.95;;;;;;;8.24;81.24;102601.16;4891969;29;20096;-74
2023/04/19 05:39:56;;;;;;;11.80;6.57;;;;;;;8.22;81.23;102599.34;4887279;29;20408;-74
2023/04/19 05:42:23;;;;;;;10.68;6.68;;;;;;;8.22;81.23;102602.88;4900887;29;20043;-75
2023/04/19 05:44:49;;;;;;;11.63;6.78;;;;;;;8.21;80.56;102597.56;4906021;29;20112;-74
2023/04/19 05:47:16;;;;;;;8.63;6.75;;;;;;;8.21;80.64;102595.84;4882806;29;20123;-74
2023/04/19 05:50:00;;;;;;;15.23;6.22;;;;;;;8.26;81.16;102601.16;4897599;29;20096;-74
2023/04/19 05:52:32;;;;;;;11.30;6.53;;;;;;;8.32;80.49;102590.72;4895443;29;20603;-74
2023/04/19 05:55:00;;;;;;;8.27;6.18;;;;;;;8.37;79.98;102599.59;4881363;29;20036;-74
2023/04/19 05:57:26;;;;;;;10.45;6.57;;;;;;;8.43;80.02;102598.81;4881729;29;20035;-74
2023/04/19 05:59:51;;;;;;;9.48;6.18;;;;;;;8.46;78.64;102594.50;4890461;29;20044;-70
2023/04/19 06:02:21;;;;;;;9.98;5.93;;;;;;;8.51;78.62;102600.72;4886713;29;20028;-70
2023/04/19 06:04:46;;;;;;;9.02;5.78;;;;;;;8.57;78.43;102599.91;4881649;29;20115;-70
2023/04/19 06:07:12;;;;;;;10.20;5.90;;;;;;;8.64;78.15;102604.44;4881939;29;20075;-70
2023/04/19 06:09:38;;;;;;;10.75;5.97;;;;;;;8.76;76.81;102607.25;4896767;29;20037;-70
2023/04/19 06:12:05;;;;;;;8.77;6.07;;;;;;;8.88;76.50;102600.34;4881669;29;20044;-70
2023/04/19 06:14:31;;;;;;;10.32;5.88;;;;;;;9.00;75.04;102603.13;4896237;29;20100;-71
2023/04/19 06:16:56;;;;;;;11.13;6.00;;;;;;;9.06;73.88;102599.72;4890431;29;20164;-71
2023/04/19 06:19:22;;;;;;;8.18;5.53;;;;;;;9.13;73.25;102614.78;4898161;29;20045;-71
2023/04/19 06:21:48;;;;;;;10.93;5.57;;;;;;;9.15;72.17;102608.63;4898244;29;20029;-71
2023/04/19 06:24:14;;;;;;;10.50;6.03;;;;;;;9.18;70.62;102607.78;4898354;29;20400;-70
2023/04/19 06:26:39;;;;;;;10.40;5.72;;;;;;;9.23;70.10;102611.38;4898154;29;20029;-71
2023/04/19 06:29:05;;;;;;;10.63;5.20;;;;;;;9.18;69.51;102606.03;4898149;29;20734;-70
2023/04/19 06:31:32;;;;;;;11.43;5.70;;;;;;;9.23;69.54;102603.44;4883028;29;20043;-71
2023/04/19 06:33:57;;;;;;;7.43;5.47;;;;;;;9.24;68.72;102600.78;4895719;29;20040;-70
2023/04/19 06:36:23;;;;;;;8.10;6.00;;;;;;;9.28;68.94;102600.84;4888898;29;20401;-71
2023/04/19 06:38:49;;;;;;;8.32;5.65;;;;;;;9.30;68.02;102600.00;4880659;29;20507;-71
2023/04/19 06:41:14;;;;;;;8.18;5.55;;;;;;;9.32;68.43;102605.28;4886611;29;20036;-71
2023/04/19 06:43:41;;;;;;;8.95;5.63;;;;;;;9.36;67.28;102601.81;4878621;29;20258;-70
2023/04/19 06:46:07;;;;;;;7.80;5.30;;;;;;;9.39;67.37;102599.22;4885431;29;20035;-71
2023/04/19 06:48:34;;;;;;;8.80;5.10;;;;;;;9.43;67.65;102599.25;4893787;29;20084;-71
2023/04/19 06:50:59;;;;;;;9.93;5.20;;;;;;;9.51;66.30;102598.47;4889766;29;20040;-71
2023/04/19 06:53:26;;;;;;;7.72;5.18;;;;;;;9.50;65.62;102594.06;4865896;29;20045;-70
2023/04/19 06:56:00;;;;;;;8.27;5.03;;;;;;;9.57;66.08;102588.84;4876445;29;20480;-71
2023/04/19 06:58:26;;;;;;;9.65;5.10;;;;;;;9.65;64.74;102595.09;4879064;29;20032;-71
2023/04/19 07:00:52;;;;;;;8.10;5.35;;;;;;;9.68;63.23;102602.16;4889684;29;20061;-71
2023/04/19 07:03:18;;;;;;;11.88;5.43;;;;;;;9.72;63.65;102595.13;4876811;29;20045;-71
2023/04/19 07:05:43;;;;;;;7.55;4.85;;;;;;;9.76;63.15;102603.13;4893228;29;20032;-71
2023/04/19 07:08:09;;;;;;;12.05;5.22;;;;;;;9.82;63.82;102605.84;4891789;29;20059;-71
2023/04/19 07:10:34;;;;;;;9.52;5.22;;;;;;;9.89;63.82;102589.16;4875017;29;20064;-71
2023/04/19 07:13:00;;;;;;;8.32;4.90;;;;;;;9.97;62.16;102602.44;4888523;29;20072;-71
2023/04/19 07:15:25;;;;;;;7.70;5.25;;;;;;;10.04;61.70;102601.63;4877254;29;20032;-71
2023/04/19 07:17:51;;;;;;;9.65;5.30;;;;;;;10.08;60.97;102595.47;4880839;29;20066;-71
2023/04/19 07:20:16;;;;;;;9.25;5.25;;;;;;;10.09;59.40;102594.63;4873381;29;20033;-71
2023/04/19 07:22:41;;;;;;;8.95;5.03;;;;;;;10.10;59.90;102592.84;4873893;29;20576;-71
2023/04/19 07:25:07;;;;;;;8.35;4.68;;;;;;;10.14;60.26;102594.66;4885750;29;20036;-71
2023/04/19 07:27:33;;;;;;;7.95;5.65;;;;;;;10.18;58.46;102596.44;4877286;29;20167;-69
2023/04/19 07:29:58;;;;;;;8.40;5.55;;;;;;;10.24;58.60;102595.63;4861287;29;20457;-71
2023/04/19 07:32:24;;;;;;;11.38;4.85;;;;;;;10.33;57.90;102595.69;4876996;29;20040;-72
2023/04/19 07:34:50;;;;;;;8.02;4.50;;;;;;;10.41;58.77;102595.75;4878065;29;20540;-71
2023/04/19 07:37:16;;;;;;;10.40;4.65;;;;;;;10.50;58.07;102602.00;4893900;29;20056;-71
2023/04/19 07:39:41;;;;;;;7.07;4.68;;;;;;;10.59;57.70;102597.66;4903046;29;20040;-71
2023/04/19 07:42:07;;;;;;;8.77;4.40;;;;;;;10.67;58.46;102591.50;4899950;29;20040;-71
2023/04/19 07:44:33;;;;;;;8.45;4.90;;;;;;;10.74;56.56;102588.00;4915546;29;20024;-71
2023/04/19 07:46:58;;;;;;;9.70;4.35;;;;;;;10.83;56.91;102592.50;4913776;29;20098;-71
2023/04/19 07:49:23;;;;;;;13.77;4.47;;;;;;;10.93;56.45;102593.41;4901287;29;20412;-72
2023/04/19 07:51:49;;;;;;;8.85;4.82;;;;;;;11.01;55.90;102578.44;4901974;29;20089;-71
2023/04/19 07:54:19;;;;;;;10.05;5.18;;;;;;;11.06;54.58;102587.28;4906800;29;20173;-71
2023/04/19 07:56:45;;;;;;;8.17;5.13;;;;;;;11.12;54.95;102584.63;4895405;29;20048;-71
2023/04/19 07:59:11;;;;;;;7.80;4.85;;;;;;;11.19;54.51;102588.22;4889380;29;20028;-71
2023/04/19 08:01:36;;;;;;;9.63;4.70;;;;;;;11.28;54.38;102582.06;4889584;29;20056;-71
2023/04/19 08:04:02;;;;;;;9.40;5.35;;;;;;;11.34;53.58;102576.75;4891993;29;20036;-73
2023/04/19 08:06:29;;;;;;;9.80;4.57;;;;;;;11.36;53.00;102578.53;4907009;29;20063;-72
2023/04/19 08:08:54;;;;;;;8.13;4.68;;;;;;;11.41;52.85;102579.44;4915432;29;20063;-71
2023/04/19 08:11:20;;;;;;;11.73;4.88;;;;;;;11.46;52.96;102590.06;4919469;29;20567;-72
2023/04/19 08:13:46;;;;;;;9.18;5.00;;;;;;;11.56;52.82;102585.66;4919245;29;20039;-72
2023/04/19 08:16:11;;;;;;;6.25;4.22;;;;;;;11.66;52.75;102584.78;4919630;29;20096;-72
2023/04/19 08:18:37;;;;;;;7.85;4.80;;;;;;;11.76;51.99;102591.00;4913173;29;20024;-72
2023/04/19 08:21:02;;;;;;;10.38;5.07;;;;;;;11.79;50.24;102578.63;4914958;29;20043;-72
2023/04/19 08:23:28;;;;;;;9.23;4.80;;;;;;;11.80;50.35;102575.06;4900397;29;20032;-72
2023/04/19 08:25:53;;;;;;;7.65;4.30;;;;;;;11.88;49.40;102577.78;4899173;29;21584;-72
2023/04/19 08:28:19;;;;;;;11.98;4.93;;;;;;;11.92;49.80;102566.28;4899215;29;20036;-72
2023/04/19 08:30:44;;;;;;;7.35;4.85;;;;;;;11.97;48.75;102576.91;4900024;29;20145;-71
2023/04/19 08:33:10;;;;;;;7.13;4.25;;;;;;;12.06;49.43;102576.88;4896377;29;20043;-71
2023/04/19 08:35:40;;;;;;;8.07;4.57;;;;;;;12.18;50.09;102568.91;4899516;29;20500;-71
2023/04/19 08:38:06;;;;;;;6.22;4.32;;;;;;;12.31;48.18;102579.53;4900081;29;20123;-71
2023/04/19 08:40:32;;;;;;;8.27;4.50;;;;;;;12.36;46.20;102577.72;4910509;29;20032;-71
2023/04/19 08:42:58;;;;;;;6.40;3.95;;;;;;;12.40;47.47;102569.75;4911120;29;20050;-70
2023/04/19 08:45:26;;;;;;;5.75;4.00;;;;;;;12.44;45.81;102576.84;4917687;29;20099;-71
2023/04/19 08:47:53;;;;;;;8.43;3.70;;;;;;;12.58;49.09;102578.59;4893464;29;20488;-71
2023/04/19 08:50:23;;;;;;;7.70;3.60;;;;;;;12.65;45.22;102577.69;4899808;29;20039;-72
2023/04/19 08:52:49;;;;;;;6.63;3.33;;;;;;;12.69;44.80;102574.13;4898586;29;20052;-71
2023/04/19 08:55:15;;;;;;;11.10;3.65;;;;;;;12.70;43.82;102571.44;4897970;29;20033;-72
2023/04/19 08:57:40;;;;;;;8.55;3.67;;;;;;;12.74;44.28;102571.47;4900019;29;20073;-72
2023/04/19 09:00:08;;;;;;;6.20;3.38;;;;;;;12.77;43.24;102571.44;4897101;29;20032;-72
2023/04/19 09:02:44;;;;;;;10.10;3.42;;;;;;;12.81;44.42;102567.88;4898037;29;20041;-73
2023/04/19 09:05:12;;;;;;;10.20;3.60;;;;;;;12.83;43.89;102571.41;4883212;29;20093;-73
2023/04/19 09:07:37;;;;;;;6.60;3.42;;;;;;;12.90;43.52;102571.38;4899198;29;20096;-73
2023/04/19 09:10:05;;;;;;;5.45;3.65;;;;;;;12.98;43.42;102568.72;4899507;29;20040;-73
2023/04/19 09:12:31;;;;;;;4.43;3.20;;;;;;;12.98;41.42;102566.06;4892705;29;20409;-73
2023/04/19 09:14:57;;;;;;;6.10;3.30;;;;;;;13.01;42.98;102576.69;4871526;29;20614;-73
2023/04/19 09:17:22;;;;;;;6.03;3.33;;;;;;;13.04;41.97;102566.00;4869727;29;20025;-74
2023/04/19 09:19:48;;;;;;;6.15;3.30;;;;;;;13.08;42.67;102556.22;4889480;29;20060;-73
2023/04/19 09:22:14;;;;;;;4.65;2.95;;;;;;;13.09;41.73;102560.69;4882432;29;20021;-73
2023/04/19 09:24:40;;;;;;;4.30;3.10;;;;;;;13.15;41.02;102565.97;4887892;29;20576;-73
2023/04/19 09:27:06;;;;;;;5.68;3.17;;;;;;;13.19;41.59;102561.53;4878254;29;20088;-73
2023/04/19 09:29:31;;;;;;;6.60;3.30;;;;;;;13.26;41.36;102557.94;4899127;29;20496;-70
2023/04/19 09:31:58;;;;;;;5.05;3.40;;;;;;;13.38;42.50;102565.88;4881999;29;20088;-74
2023/04/19 09:34:23;;;;;;;8.10;3.22;;;;;;;13.43;40.92;102561.41;4894006;29;20028;-73
2023/04/19 09:36:49;;;;;;;6.80;3.10;;;;;;;13.56;41.93;102567.53;4912982;29;20155;-75
2023/04/19 09:39:30;;;;;;;4.88;3.05;;;;;;;13.65;41.59;102564.81;4901166;29;20103;-74
2023/04/19 09:41:57;;;;;;;4.32;2.90;;;;;;;13.75;42.30;102560.31;4917672;29;20032;-75
2023/04/19 09:44:23;;;;;;;3.97;2.65;;;;;;;13.88;41.07;102566.41;4918135;29;20020;-75
2023/04/19 09:46:51;;;;;;;9.15;2.85;;;;;;;13.98;40.75;102549.47;4918069;29;20036;-75
2023/04/19 09:49:23;;;;;;;11.00;3.70;;;;;;;14.07;40.85;102560.03;4917792;29;20055;-75
2023/04/19 09:51:54;;;;;;;7.20;3.17;;;;;;;14.10;39.14;102554.69;4900577;29;20033;-75
2023/04/19 09:54:22;;;;;;;6.22;3.03;;;;;;;14.09;38.03;102549.34;4897531;29;20386;-75
2023/04/19 09:56:49;;;;;;;7.03;2.85;;;;;;;14.19;39.30;102551.94;4882217;29;20401;-75
2023/04/19 09:59:15;;;;;;;5.22;2.72;;;;;;;14.30;38.73;102557.16;4898551;29;20036;-75
2023/04/19 10:01:53;;;;;;;6.57;3.00;;;;;;;14.33;38.21;102550.91;4880930;29;20029;-75
2023/04/19 10:04:23;;;;;;;5.80;2.80;;;;;;;14.36;37.94;102551.75;4898458;29;20476;-74
2023/04/19 10:06:51;;;;;;;6.15;2.65;;;;;;;14.41;36.28;102546.38;4898614;29;20044;-75
2023/04/19 10:09:21;;;;;;;8.23;3.10;;;;;;;14.33;36.53;102559.78;4898613;29;20092;-74
2023/04/19 10:11:48;;;;;;;7.53;2.70;;;;;;;14.25;36.38;102550.13;4881572;29;20075;-73
2023/04/19 10:14:15;;;;;;;6.18;2.60;;;;;;;14.24;37.99;102546.53;4898102;29;20032;-73
2023/04/19 10:16:41;;;;;;;6.35;2.80;;;;;;;14.32;37.17;102549.16;4898321;29;20433;-72
2023/04/19 10:19:12;;;;;;;5.93;2.75;;;;;;;14.49;37.70;102547.19;4900682;29;20032;-73
2023/04/19 10:21:38;;;;;;;;;;;;;;;14.65;38.23;102549.72;4898795;29;20060;-74
2023/04/19 10:24:04;;;;;;;2.95;2.15;;;;;;;14.65;36.19;102550.59;4898369;29;19911;-73
2023/04/19 10:27:05;;;;;;;3.72;2.63;;;;;;;14.61;37.54;102538.19;4898214;29;20044;-74
2023/04/19 10:29:56;;;;;;;8.45;2.10;;;;;;;14.65;37.04;102539.03;4911408;29;20115;-74
2023/04/19 10:32:23;;;;;;;4.90;1.97;;;;;;;14.67;33.92;102537.25;4887871;29;20028;-74
2023/04/19 10:34:53;;;;;;;7.53;2.33;;;;;;;14.73;36.48;102527.38;4900592;29;20032;-74
2023/04/19 10:37:22;;;;;;;5.38;1.90;;;;;;;14.95;35.05;102521.78;4914165;29;20052;-74
2023/04/19 10:39:48;;;;;;;9.57;2.03;;;;;;;15.15;34.69;102522.38;4913487;29;20399;-73
2023/04/19 10:42:13;;;;;;;4.85;1.83;;;;;;;15.25;33.80;102520.44;4912803;29;20067;-73
2023/04/19 10:44:39;;;;;;;5.32;1.90;;;;;;;15.25;32.66;102528.47;4931186;29;20111;-74
2023/04/19 10:47:04;;;;;;;5.90;2.05;;;;;;;15.25;33.65;102528.47;4931479;29;20044;-74
2023/04/19 10:49:30;;;;;;;5.97;2.10;;;;;;;15.35;32.47;102529.22;4910441;29;20037;-74
2023/04/19 10:51:59;;;;;;;8.32;2.08;;;;;;;15.35;32.02;102523.88;4909667;29;20068;-75
2023/04/19 10:54:38;;;;;;;5.75;1.90;;;;;;;15.35;33.36;102529.22;4885130;29;20047;-73
2023/04/19 10:57:09;;;;;;;6.75;2.05;;;;;;;15.38;32.94;102522.06;4909755;29;20033;-73
2023/04/19 10:59:35;;;;;;;2.58;1.88;;;;;;;15.46;33.17;102520.13;4903891;29;20521;-72
2023/04/19 11:02:03;;;;;;;8.13;1.85;;;;;;;15.44;32.50;102515.72;4902080;29;20521;-74
2023/04/19 11:04:28;;;;;;;5.15;1.75;;;;;;;15.48;32.67;102517.47;4888925;29;20028;-74
2023/04/19 11:06:54;;;;;;;5.63;2.20;;;;;;;15.63;32.28;102530.56;4909368;29;20013;-74
2023/04/19 11:09:25;;;;;;;5.13;1.70;;;;;;;15.71;33.28;102524.25;4905172;29;20498;-74
2023/04/19 11:11:58;;;;;;;7.10;2.20;;;;;;;15.71;32.79;102517.13;4893973;29;20079;-74
2023/04/19 11:14:24;;;;;;;8.15;2.25;;;;;;;15.80;33.08;102522.31;4912482;29;20044;-73
2023/04/19 11:16:49;;;;;;;8.38;2.60;;;;;;;15.79;32.18;102519.66;4897490;29;20502;-74
2023/04/19 11:19:16;;;;;;;3.10;2.28;;;;;;;15.70;32.52;102510.00;4897167;29;20036;-74
2023/04/19 11:21:41;;;;;;;4.10;2.20;;;;;;;15.84;33.34;102518.66;4896541;29;20103;-74
2023/04/19 11:24:09;;;;;;;5.40;2.17;;;;;;;16.00;33.19;102519.28;4902909;29;20518;-74